Time;durP1;ratioP1;P1;durP2;ratioP2;P2;SDS_P1;SDS_P2;PMS_P1;PMS_P2;Temp;Humidity;BMP_temperature;BMP_pressure;BME280_temperature;BME280_humidity;BME280_pressure;Samples;Min_cycle;Max_cycle;Signal;HPM_P1;HPM_P2
2022/04/01 00:00:44;;;;;;;;;;;20.90;29.00;;;;;;5060432;28;19927;-59
2022/04/01 00:03:09;;;;;;;;;;;20.90;29.50;;;;;;5045154;28;19976;-59
2022/04/01 00:05:35;;;;;;;;;;;20.80;28.90;;;;;;5060156;28;19981;-59
2022/04/01 00:08:01;;;;;;;;;;;20.80;28.90;;;;;;5048426;28;20236;-59
2022/04/01 00:10:27;;;;;;;;;;;20.80;28.90;;;;;;5046764;28;19913;-59
2022/04/01 00:12:52;;;;;;;;;;;20.90;29.50;;;;;;5057517;28;19912;-59
2022/04/01 00:15:17;;;;;;;;;;;20.80;28.90;;;;;;5042071;28;19959;-59
2022/04/01 00:17:43;;;;;;;;;;;20.80;28.90;;;;;;5056255;28;19920;-59
2022/04/01 00:20:09;;;;;;;;;;;20.80;28.90;;;;;;5042239;28;20019;-59
2022/04/01 00:22:35;;;;;;;;;;;20.80;28.90;;;;;;5042652;28;19924;-58
2022/04/01 00:25:00;;;;;;;;;;;20.80;28.90;;;;;;5061440;28;20383;-59
2022/04/01 00:27:25;;;;;;;;;;;20.70;28.80;;;;;;5040058;28;19913;-59
2022/04/01 00:29:51;;;;;;;;;;;20.70;28.80;;;;;;5058560;28;20007;-59
2022/04/01 00:32:16;;;;;;;;;;;20.70;28.80;;;;;;5034181;28;19998;-59
2022/04/01 00:34:42;;;;;;;;;;;20.70;29.00;;;;;;5043359;28;19990;-59
2022/04/01 00:37:08;;;;;;;;;;;20.60;28.90;;;;;;5062369;28;19913;-59
2022/04/01 00:39:33;;;;;;;;;;;20.60;29.00;;;;;;5030156;28;19916;-59
2022/04/01 00:41:59;;;;;;;;;;;20.60;28.90;;;;;;5044225;28;20010;-59
2022/04/01 00:44:26;;;;;;;;;;;20.60;28.90;;;;;;5060258;28;19956;-58
2022/04/01 00:46:52;;;;;;;;;;;20.60;28.90;;;;;;5064393;28;19935;-59
2022/04/01 00:49:18;;;;;;;;;;;20.50;29.00;;;;;;5058954;28;19916;-59
2022/04/01 00:51:44;;;;;;;;;;;20.60;29.10;;;;;;5046550;28;20645;-59
2022/04/01 00:54:10;;;;;;;;;;;20.50;28.90;;;;;;5046363;28;19916;-59
2022/04/01 00:56:35;;;;;;;;;;;20.40;28.80;;;;;;5056545;28;19927;-59
2022/04/01 00:59:02;;;;;;;;;;;20.50;29.40;;;;;;5037781;28;20328;-59
2022/04/01 01:01:28;;;;;;;;;;;20.50;28.90;;;;;;5042820;28;20288;-59
2022/04/01 01:03:54;;;;;;;;;;;20.40;28.80;;;;;;5057694;28;19924;-59
2022/04/01 01:06:19;;;;;;;;;;;20.40;28.70;;;;;;5060470;28;19917;-59
2022/04/01 01:08:45;;;;;;;;;;;20.40;28.60;;;;;;5046983;28;20356;-59
2022/04/01 01:11:10;;;;;;;;;;;20.40;28.60;;;;;;5045914;28;20345;-59
2022/04/01 01:13:36;;;;;;;;;;;20.40;28.60;;;;;;5060436;28;19935;-59
2022/04/01 01:16:01;;;;;;;;;;;20.40;28.70;;;;;;5048160;28;20014;-59
2022/04/01 01:18:27;;;;;;;;;;;20.30;28.80;;;;;;5042303;28;20043;-59
2022/04/01 01:20:52;;;;;;;;;;;20.40;29.00;;;;;;5056375;28;19924;-59
2022/04/01 01:23:18;;;;;;;;;;;20.50;29.00;;;;;;5054000;28;19924;-59
2022/04/01 01:25:45;;;;;;;;;;;20.70;28.90;;;;;;5060873;28;19912;-59
2022/04/01 01:28:11;;;;;;;;;;;20.80;28.80;;;;;;5048844;28;19912;-59
2022/04/01 01:30:36;;;;;;;;;;;21.10;28.70;;;;;;5048281;28;20015;-59
2022/04/01 01:33:02;;;;;;;;;;;21.30;28.40;;;;;;5056106;28;20015;-59
2022/04/01 01:35:28;;;;;;;;;;;21.60;28.30;;;;;;5052944;28;19924;-60
2022/04/01 01:37:54;;;;;;;;;;;21.90;28.10;;;;;;5063592;28;19919;-59
2022/04/01 01:40:20;;;;;;;;;;;22.30;27.80;;;;;;5040956;28;19921;-59
2022/04/01 01:42:45;;;;;;;;;;;22.50;27.60;;;;;;5059830;28;19917;-59
2022/04/01 01:45:11;;;;;;;;;;;22.70;27.30;;;;;;5039559;28;19967;-59
2022/04/01 01:47:36;;;;;;;;;;;22.80;27.20;;;;;;5043452;28;19955;-59
2022/04/01 01:55:30;;;;;;;;;;;23.10;27.00;;;;;;5065723;28;19971;-59
2022/04/01 01:57:56;;;;;;;;;;;23.10;26.90;;;;;;5049697;28;19948;-59
2022/04/01 02:00:22;;;;;;;;;;;23.10;26.80;;;;;;5065798;28;20007;-59
2022/04/01 02:02:50;;;;;;;;;;;23.20;27.30;;;;;;5046677;28;19955;-59
2022/04/01 02:05:19;;;;;;;;;;;23.20;26.70;;;;;;5048193;28;19995;-59
2022/04/01 02:07:47;;;;;;;;;;;23.20;26.60;;;;;;5064836;28;19940;-59
2022/04/01 02:10:15;;;;;;;;;;;23.20;26.60;;;;;;5064542;28;19916;-59
2022/04/01 02:12:43;;;;;;;;;;;23.20;26.60;;;;;;5062552;28;19913;-59
2022/04/01 02:15:10;;;;;;;;;;;23.20;26.60;;;;;;5051219;28;19924;-59
2022/04/01 02:17:39;;;;;;;;;;;23.20;26.60;;;;;;5035145;28;19913;-59
2022/04/01 02:20:05;;;;;;;;;;;23.10;26.50;;;;;;5051175;28;19966;-59
2022/04/01 02:22:31;;;;;;;;;;;23.10;26.50;;;;;;5062820;28;19956;-59
2022/04/01 02:24:57;;;;;;;;;;;23.10;26.60;;;;;;5045620;28;19995;-59
2022/04/01 02:27:24;;;;;;;;;;;23.00;26.70;;;;;;5064641;28;19924;-59
2022/04/01 02:29:50;;;;;;;;;;;22.90;26.80;;;;;;5058401;28;19959;-58
2022/04/01 02:32:16;;;;;;;;;;;22.80;26.90;;;;;;5049122;28;19988;-59
2022/04/01 02:34:42;;;;;;;;;;;22.70;26.90;;;;;;5054395;28;19913;-59
2022/04/01 02:37:07;;;;;;;;;;;22.70;27.00;;;;;;5048693;28;20253;-59
2022/04/01 02:39:33;;;;;;;;;;;22.60;26.90;;;;;;5032596;28;19938;-59
2022/04/01 02:41:58;;;;;;;;;;;22.60;26.90;;;;;;5065911;28;20391;-59
2022/04/01 02:44:24;;;;;;;;;;;22.60;26.90;;;;;;5061284;28;20430;-59
2022/04/01 02:46:50;;;;;;;;;;;22.60;27.00;;;;;;5057252;28;19913;-59
2022/04/01 02:49:16;;;;;;;;;;;22.50;27.00;;;;;;5060881;28;19920;-58
2022/04/01 02:51:42;;;;;;;;;;;22.50;27.00;;;;;;5050197;28;20009;-59
2022/04/01 02:54:08;;;;;;;;;;;22.50;26.90;;;;;;5045083;28;19921;-59
2022/04/01 02:56:34;;;;;;;;;;;22.60;26.90;;;;;;5049360;28;22649;-59
2022/04/01 02:59:06;;;;;;;;;;;22.60;26.90;;;;;;5046486;28;19912;-59
2022/04/01 03:01:32;;;;;;;;;;;22.50;27.00;;;;;;5044974;28;19921;-59
2022/04/01 03:03:58;;;;;;;;;;;22.50;27.00;;;;;;5062650;28;20399;-59
2022/04/01 03:06:24;;;;;;;;;;;22.60;26.90;;;;;;5045000;28;19920;-59
2022/04/01 03:08:50;;;;;;;;;;;22.70;26.90;;;;;;5050367;28;19955;-59
2022/04/01 03:11:15;;;;;;;;;;;22.80;26.90;;;;;;5050966;28;19917;-59
2022/04/01 03:13:41;;;;;;;;;;;22.80;26.70;;;;;;5048555;28;19918;-59
2022/04/01 03:16:06;;;;;;;;;;;22.90;26.60;;;;;;5061159;28;19936;-59
2022/04/01 03:18:32;;;;;;;;;;;23.00;26.60;;;;;;5061901;28;19964;-59
2022/04/01 03:20:58;;;;;;;;;;;23.00;26.50;;;;;;5061507;28;19951;-59
2022/04/01 03:23:23;;;;;;;;;;;23.00;26.50;;;;;;5064898;28;19927;-59
2022/04/01 03:25:50;;;;;;;;;;;22.90;26.50;;;;;;5063745;28;20375;-59
2022/04/01 03:28:17;;;;;;;;;;;22.80;26.60;;;;;;5045842;28;20055;-59
2022/04/01 03:30:42;;;;;;;;;;;22.70;26.60;;;;;;5042396;28;20284;-59
2022/04/01 03:33:08;;;;;;;;;;;22.50;26.90;;;;;;5044089;28;20018;-59
2022/04/01 03:35:34;;;;;;;;;;;22.50;26.90;;;;;;5063973;28;19916;-59
2022/04/01 03:37:59;;;;;;;;;;;22.40;26.90;;;;;;5061586;28;19917;-59
2022/04/01 03:40:27;;;;;;;;;;;22.40;26.90;;;;;;5065615;28;19919;-59
2022/04/01 03:42:55;;;;;;;;;;;22.50;26.90;;;;;;5059903;28;20276;-59
2022/04/01 03:45:20;;;;;;;;;;;22.50;26.70;;;;;;5042469;28;19920;-59
2022/04/01 03:47:54;;;;;;;;;;;22.60;26.60;;;;;;5047748;28;19949;-59
2022/04/01 03:50:21;;;;;;;;;;;22.60;26.60;;;;;;5034450;28;19919;-59
2022/04/01 03:52:50;;;;;;;;;;;22.60;26.50;;;;;;5059813;28;19938;-59
2022/04/01 03:55:16;;;;;;;;;;;22.60;26.50;;;;;;5048260;28;20365;-59
2022/04/01 03:57:41;;;;;;;;;;;22.60;26.50;;;;;;5046739;28;19991;-59
2022/04/01 04:00:08;;;;;;;;;;;22.70;26.60;;;;;;5063214;28;20334;-59
2022/04/01 04:02:33;;;;;;;;;;;22.70;26.60;;;;;;5039705;28;19919;-59
2022/04/01 04:04:59;;;;;;;;;;;22.70;26.60;;;;;;5054426;28;20368;-59
2022/04/01 04:07:25;;;;;;;;;;;22.80;26.60;;;;;;5058860;28;20011;-59
2022/04/01 04:09:50;;;;;;;;;;;22.90;26.50;;;;;;5045665;28;19913;-59
2022/04/01 04:12:17;;;;;;;;;;;23.00;26.50;;;;;;5049485;28;20003;-59
2022/04/01 04:14:43;;;;;;;;;;;23.00;26.40;;;;;;5063396;28;19939;-59
2022/04/01 04:17:12;;;;;;;;;;;23.00;26.80;;;;;;5056483;28;19916;-59
2022/04/01 04:19:56;;;;;;;;;;;23.00;26.30;;;;;;5048009;28;19917;-59
2022/04/01 04:22:48;;;;;;;;;;;23.10;26.30;;;;;;5061531;28;19924;-59
2022/04/01 04:25:14;;;;;;;;;;;23.10;26.30;;;;;;5030032;28;20372;-58
2022/04/01 04:27:48;;;;;;;;;;;23.10;26.20;;;;;;5045715;28;19913;-59
2022/04/01 04:30:13;;;;;;;;;;;23.10;26.10;;;;;;5048653;28;19980;-59
2022/04/01 04:32:40;;;;;;;;;;;23.10;26.20;;;;;;5032030;28;20016;-59
2022/04/01 04:35:06;;;;;;;;;;;23.10;26.20;;;;;;5039426;28;19940;-59
2022/04/01 04:37:35;;;;;;;;;;;23.10;26.20;;;;;;5061006;28;19913;-59
2022/04/01 04:40:01;;;;;;;;;;;23.10;26.00;;;;;;5041967;28;20023;-59
2022/04/01 04:42:27;;;;;;;;;;;23.00;26.00;;;;;;5048082;28;20384;-59
2022/04/01 04:44:53;;;;;;;;;;;23.00;26.10;;;;;;5024115;28;20277;-59
2022/04/01 04:47:25;;;;;;;;;;;22.90;26.10;;;;;;5035830;28;19966;-59
2022/04/01 04:49:52;;;;;;;;;;;22.90;26.20;;;;;;5047780;28;19919;-59
2022/04/01 04:52:18;;;;;;;;;;;22.90;26.30;;;;;;5041272;28;19920;-59
2022/04/01 04:54:43;;;;;;;;;;;22.90;26.10;;;;;;5050287;28;19965;-59
2022/04/01 04:57:09;;;;;;;;;;;22.90;26.10;;;;;;5044071;28;19925;-59
2022/04/01 04:59:34;;;;;;;;;;;23.00;26.10;;;;;;5059262;28;19974;-59
2022/04/01 05:02:07;;;;;;;;;;;23.00;26.10;;;;;;5042003;28;19913;-59
2022/04/01 05:04:39;;;;;;;;;;;23.00;26.10;;;;;;5044191;28;19924;-59
2022/04/01 05:07:05;;;;;;;;;;;23.00;26.00;;;;;;5058235;28;19921;-59
2022/04/01 05:09:35;;;;;;;;;;;23.10;26.10;;;;;;5063107;28;19913;-59
2022/04/01 05:12:07;;;;;;;;;;;23.10;26.00;;;;;;5039089;28;19912;-59
2022/04/01 05:14:32;;;;;;;;;;;23.10;26.00;;;;;;5064482;28;19916;-59
2022/04/01 05:17:02;;;;;;;;;;;23.10;26.00;;;;;;5047313;28;20394;-59
2022/04/01 05:19:28;;;;;;;;;;;23.10;26.00;;;;;;5062309;28;20388;-59
2022/04/01 05:21:57;;;;;;;;;;;23.10;26.00;;;;;;5047848;28;19920;-59
2022/04/01 05:24:23;;;;;;;;;;;23.10;26.00;;;;;;5041603;28;19947;-59
2022/04/01 05:26:52;;;;;;;;;;;23.10;26.00;;;;;;5068604;28;20283;-59
2022/04/01 05:29:25;;;;;;;;;;;23.10;26.00;;;;;;5049282;28;20443;-59
2022/04/01 05:31:51;;;;;;;;;;;23.10;26.00;;;;;;5044179;28;19943;-59
2022/04/01 05:34:28;;;;;;;;;;;23.00;25.90;;;;;;5049501;28;19913;-59
2022/04/01 05:36:54;;;;;;;;;;;23.00;25.90;;;;;;5059886;28;19955;-59
2022/04/01 05:39:19;;;;;;;;;;;22.90;26.00;;;;;;5061670;28;19916;-59
2022/04/01 05:41:45;;;;;;;;;;;22.90;26.10;;;;;;5047954;28;20011;-59
2022/04/01 05:44:10;;;;;;;;;;;22.90;26.10;;;;;;5049917;28;20383;-59
2022/04/01 05:46:36;;;;;;;;;;;22.90;26.10;;;;;;5033090;28;19919;-59
2022/04/01 05:49:02;;;;;;;;;;;22.90;26.10;;;;;;5044721;28;19999;-59
2022/04/01 05:51:29;;;;;;;;;;;22.90;26.10;;;;;;5023153;28;20039;-60
2022/04/01 05:53:54;;;;;;;;;;;22.90;26.00;;;;;;5054791;28;19912;-59
2022/04/01 05:56:20;;;;;;;;;;;22.90;26.10;;;;;;5048559;28;19919;-59
2022/04/01 05:58:45;;;;;;;;;;;22.90;26.10;;;;;;5066493;28;19912;-59
2022/04/01 06:01:10;;;;;;;;;;;23.00;26.10;;;;;;5046730;28;19913;-59
2022/04/01 06:03:44;;;;;;;;;;;23.00;26.10;;;;;;5063623;28;19916;-59
2022/04/01 06:06:13;;;;;;;;;;;23.00;26.00;;;;;;5064441;28;19919;-59
2022/04/01 06:08:57;;;;;;;;;;;23.00;25.90;;;;;;5048984;28;20372;-59
2022/04/01 06:11:36;;;;;;;;;;;23.10;26.00;;;;;;5062862;28;19939;-59
2022/04/01 06:14:03;;;;;;;;;;;23.10;26.00;;;;;;5064793;28;19921;-59
2022/04/01 06:16:48;;;;;;;;;;;23.10;26.00;;;;;;5048353;28;19966;-59
2022/04/01 06:19:29;;;;;;;;;;;23.10;26.00;;;;;;5062055;28;19920;-59
2022/04/01 06:22:02;;;;;;;;;;;23.20;26.00;;;;;;5048977;28;19920;-59
2022/04/01 06:24:31;;;;;;;;;;;23.20;26.00;;;;;;5063042;28;19943;-59
2022/04/01 06:26:58;;;;;;;;;;;23.10;26.00;;;;;;5064669;28;19965;-59
2022/04/01 06:29:32;;;;;;;;;;;23.10;26.00;;;;;;5049280;28;19923;-59
2022/04/01 06:32:01;;;;;;;;;;;23.00;26.00;;;;;;5059371;28;19927;-59
2022/04/01 06:34:31;;;;;;;;;;;23.00;26.10;;;;;;5058383;28;19913;-59
2022/04/01 06:36:59;;;;;;;;;;;23.00;26.20;;;;;;5060835;28;20011;-59
2022/04/01 06:39:38;;;;;;;;;;;23.00;26.10;;;;;;5029417;28;19927;-59
2022/04/01 06:42:04;;;;;;;;;;;23.00;26.10;;;;;;5049041;28;19939;-59
2022/04/01 06:44:29;;;;;;;;;;;23.00;26.10;;;;;;5064623;28;19956;-59
2022/04/01 06:46:55;;;;;;;;;;;22.90;26.10;;;;;;5061758;28;20300;-59
2022/04/01 06:49:21;;;;;;;;;;;22.90;26.20;;;;;;5052227;28;19924;-59
2022/04/01 06:51:47;;;;;;;;;;;22.90;26.30;;;;;;5072252;28;20041;-59
2022/04/01 06:54:12;;;;;;;;;;;22.90;26.30;;;;;;5076106;28;20015;-59
2022/04/01 06:56:38;;;;;;;;;;;22.90;26.40;;;;;;5057405;28;19916;-59
2022/04/01 06:59:05;;;;;;;;;;;22.90;26.30;;;;;;5063100;28;19912;-59
2022/04/01 07:01:30;;;;;;;;;;;23.00;26.40;;;;;;5052913;28;20352;-59
2022/04/01 07:03:56;;;;;;;;;;;23.00;26.60;;;;;;5071841;28;19958;-59
2022/04/01 07:06:22;;;;;;;;;;;23.00;26.50;;;;;;5036716;28;19943;-59
2022/04/01 07:08:50;;;;;;;;;;;23.10;26.60;;;;;;5071515;28;20000;-59
2022/04/01 07:11:15;;;;;;;;;;;23.10;26.60;;;;;;5055138;28;19915;-59
2022/04/01 07:13:41;;;;;;;;;;;23.10;26.50;;;;;;5047423;28;19912;-60
2022/04/01 07:16:06;;;;;;;;;;;23.10;26.50;;;;;;5085171;28;19933;-60
2022/04/01 07:18:33;;;;;;;;;;;23.20;26.70;;;;;;5063079;28;19920;-58
2022/04/01 07:20:58;;;;;;;;;;;23.30;26.70;;;;;;5055194;28;19931;-59
2022/04/01 07:23:24;;;;;;;;;;;23.50;26.70;;;;;;5062792;28;19936;-59
2022/04/01 07:25:49;;;;;;;;;;;23.70;26.70;;;;;;5063531;28;20011;-59
2022/04/01 07:28:14;;;;;;;;;;;24.10;26.60;;;;;;5075782;28;19919;-60
2022/04/01 07:30:40;;;;;;;;;;;24.30;26.30;;;;;;5044213;28;19920;-59
2022/04/01 07:33:05;;;;;;;;;;;24.50;26.20;;;;;;5070443;28;20052;-58
2022/04/01 07:35:31;;;;;;;;;;;24.70;26.20;;;;;;5048554;28;19920;-58
2022/04/01 07:37:56;;;;;;;;;;;24.80;26.20;;;;;;5080189;28;19912;-58
2022/04/01 07:40:22;;;;;;;;;;;25.00;26.10;;;;;;5076674;28;19923;-58
2022/04/01 07:42:48;;;;;;;;;;;25.00;26.00;;;;;;5074460;28;19912;-59
2022/04/01 07:45:14;;;;;;;;;;;25.10;26.00;;;;;;5067411;28;19912;-59
2022/04/01 07:47:44;;;;;;;;;;;25.00;25.90;;;;;;5057813;28;19915;-59
2022/04/01 07:50:09;;;;;;;;;;;25.10;26.00;;;;;;5046049;28;19917;-59
2022/04/01 07:52:40;;;;;;;;;;;25.10;26.10;;;;;;5058197;28;19962;-60
2022/04/01 07:55:05;;;;;;;;;;;25.00;26.10;;;;;;5059706;28;20291;-58
2022/04/01 07:57:31;;;;;;;;;;;25.00;26.10;;;;;;5085396;28;19998;-59
2022/04/01 07:59:56;;;;;;;;;;;25.00;26.10;;;;;;5052863;28;19948;-59
2022/04/01 08:02:22;;;;;;;;;;;25.00;26.30;;;;;;5055797;28;19917;-59
2022/04/01 08:04:47;;;;;;;;;;;25.00;26.30;;;;;;5045744;28;19925;-59
2022/04/01 08:07:13;;;;;;;;;;;24.90;26.30;;;;;;5064088;28;19911;-59
2022/04/01 08:09:38;;;;;;;;;;;24.90;26.40;;;;;;5034522;28;19955;-59
2022/04/01 08:12:04;;;;;;;;;;;24.90;26.40;;;;;;5035924;28;19916;-59
2022/04/01 08:14:29;;;;;;;;;;;24.80;26.50;;;;;;5037860;28;20019;-59
2022/04/01 08:16:56;;;;;;;;;;;24.80;26.50;;;;;;5037776;28;20930;-59
2022/04/01 08:19:22;;;;;;;;;;;24.90;26.60;;;;;;5046760;28;19952;-59
2022/04/01 08:21:49;;;;;;;;;;;24.90;26.60;;;;;;5041914;28;19937;-58
2022/04/01 08:24:16;;;;;;;;;;;24.90;26.60;;;;;;5050990;28;20441;-59
2022/04/01 08:26:43;;;;;;;;;;;24.90;26.70;;;;;;5070268;28;21349;-59
2022/04/01 08:29:08;;;;;;;;;;;24.90;26.70;;;;;;5067829;28;19916;-59
2022/04/01 08:31:34;;;;;;;;;;;25.00;26.80;;;;;;5067762;28;20421;-58
2022/04/01 08:33:59;;;;;;;;;;;25.00;26.80;;;;;;5039478;28;20331;-59
2022/04/01 08:36:26;;;;;;;;;;;25.00;26.90;;;;;;5054846;28;20384;-59
2022/04/01 08:38:51;;;;;;;;;;;25.10;27.00;;;;;;5046224;28;19970;-59
2022/04/01 08:41:17;;;;;;;;;;;25.10;27.00;;;;;;5050827;28;19917;-58
2022/04/01 08:43:44;;;;;;;;;;;25.10;27.00;;;;;;5037553;28;19948;-59
2022/04/01 08:46:09;;;;;;;;;;;25.10;27.20;;;;;;5040553;28;19917;-59
2022/04/01 08:48:35;;;;;;;;;;;25.10;27.20;;;;;;5069488;28;20265;-60
2022/04/01 08:51:01;;;;;;;;;;;25.10;27.20;;;;;;5052390;28;19916;-59
2022/04/01 08:53:26;;;;;;;;;;;25.10;27.20;;;;;;5076118;28;19928;-59
2022/04/01 08:55:52;;;;;;;;;;;25.00;27.20;;;;;;5078562;28;19916;-59
2022/04/01 08:58:19;;;;;;;;;;;25.00;27.20;;;;;;5064916;28;19973;-59
2022/04/01 09:00:45;;;;;;;;;;;25.00;27.20;;;;;;5072157;28;20276;-59
2022/04/01 09:03:11;;;;;;;;;;;25.00;27.20;;;;;;5070927;28;19916;-59
2022/04/01 09:05:37;;;;;;;;;;;25.00;27.20;;;;;;5038898;28;19908;-61
2022/04/01 09:08:04;;;;;;;;;;;24.90;27.10;;;;;;5049553;28;20475;-60
2022/04/01 09:10:29;;;;;;;;;;;24.90;27.20;;;;;;5060652;28;19921;-60
2022/04/01 09:12:55;;;;;;;;;;;24.90;27.20;;;;;;5061932;28;19923;-60
2022/04/01 09:15:21;;;;;;;;;;;24.90;27.30;;;;;;5049132;28;19958;-60
2022/04/01 09:17:46;;;;;;;;;;;24.90;27.30;;;;;;5064801;28;19912;-60
2022/04/01 09:20:12;;;;;;;;;;;24.90;27.30;;;;;;5057367;28;19917;-60
2022/04/01 09:22:38;;;;;;;;;;;24.90;27.30;;;;;;5052801;28;19926;-61
2022/04/01 09:25:05;;;;;;;;;;;24.90;27.30;;;;;;5047391;28;19967;-60
2022/04/01 09:27:46;;;;;;;;;;;24.90;27.30;;;;;;5054518;28;20362;-60
2022/04/01 09:30:12;;;;;;;;;;;24.90;27.30;;;;;;5047886;28;20391;-61
2022/04/01 09:32:47;;;;;;;;;;;24.90;27.40;;;;;;5059052;28;19923;-62
2022/04/01 09:35:13;;;;;;;;;;;24.90;27.40;;;;;;5068418;28;19923;-62
2022/04/01 09:37:38;;;;;;;;;;;24.90;27.40;;;;;;5045865;28;19999;-60
2022/04/01 09:40:04;;;;;;;;;;;24.90;27.40;;;;;;5068122;28;20011;-60
2022/04/01 09:42:29;;;;;;;;;;;25.00;27.40;;;;;;5064036;28;19917;-60
2022/04/01 09:44:58;;;;;;;;;;;25.00;27.40;;;;;;5049146;28;21347;-61
2022/04/01 09:47:24;;;;;;;;;;;25.00;27.30;;;;;;5048110;28;19919;-60
2022/04/01 09:49:52;;;;;;;;;;;25.10;27.20;;;;;;5073263;28;19924;-61
2022/04/01 09:52:22;;;;;;;;;;;25.20;27.20;;;;;;5042264;28;20407;-61
2022/04/01 09:54:47;;;;;;;;;;;25.20;27.20;;;;;;5038542;28;19920;-61
2022/04/01 09:57:16;;;;;;;;;;;25.20;27.20;;;;;;5057574;28;19927;-61
2022/04/01 09:59:42;;;;;;;;;;;25.30;27.30;;;;;;5043618;28;19916;-60
2022/04/01 10:02:07;;;;;;;;;;;25.20;27.20;;;;;;5059425;28;19921;-61
2022/04/01 10:04:33;;;;;;;;;;;25.20;27.20;;;;;;5061873;28;20409;-60
2022/04/01 10:06:58;;;;;;;;;;;25.20;27.20;;;;;;5039956;28;19921;-60
2022/04/01 10:09:24;;;;;;;;;;;25.20;27.20;;;;;;5060134;28;19921;-60
2022/04/01 10:11:50;;;;;;;;;;;25.20;27.20;;;;;;5040213;28;19924;-61
2022/04/01 10:14:16;;;;;;;;;;;25.20;27.20;;;;;;5027997;28;20280;-61
2022/04/01 10:16:42;;;;;;;;;;;25.20;27.30;;;;;;5045422;28;20391;-60
2022/04/01 10:19:28;;;;;;;;;;;25.20;27.20;;;;;;5044373;28;19920;-60
2022/04/01 10:21:53;;;;;;;;;;;25.20;27.20;;;;;;5062247;28;19928;-60
2022/04/01 10:24:19;;;;;;;;;;;25.20;27.30;;;;;;5072270;28;19927;-59
2022/04/01 10:27:01;;;;;;;;;;;25.20;27.30;;;;;;5079430;28;19917;-59
2022/04/01 10:29:27;;;;;;;;;;;25.20;27.50;;;;;;5051997;28;20007;-59
2022/04/01 10:31:53;;;;;;;;;;;25.20;27.70;;;;;;5091781;28;19989;-60
2022/04/01 10:34:19;;;;;;;;;;;25.20;27.70;;;;;;5072626;28;19960;-59
2022/04/01 10:36:55;;;;;;;;;;;25.20;27.70;;;;;;5060326;28;19920;-59
2022/04/01 10:39:20;;;;;;;;;;;25.10;27.60;;;;;;5029797;28;19913;-60
2022/04/01 10:42:05;;;;;;;;;;;25.10;27.70;;;;;;5050623;28;19978;-59
2022/04/01 10:44:46;;;;;;;;;;;25.10;27.70;;;;;;5051920;28;19921;-60
2022/04/01 10:47:11;;;;;;;;;;;25.20;27.80;;;;;;5065202;28;20160;-59
2022/04/01 10:52:24;;;;;;;;;;;25.10;27.70;;;;;;5064480;28;19919;-60
2022/04/01 10:54:50;;;;;;;;;;;25.20;27.90;;;;;;5065523;28;19962;-59
2022/04/01 10:57:24;;;;;;;;;;;25.20;27.90;;;;;;5050746;28;20318;-59
2022/04/01 10:59:50;;;;;;;;;;;25.20;28.00;;;;;;5051007;28;19952;-60
2022/04/01 11:02:19;;;;;;;;;;;25.30;28.00;;;;;;5054301;28;19963;-59
2022/04/01 11:04:45;;;;;;;;;;;25.30;28.00;;;;;;5054787;28;19916;-60
2022/04/01 11:07:33;;;;;;;;;;;25.30;28.00;;;;;;5077484;28;19939;-60
2022/04/01 11:10:04;;;;;;;;;;;25.30;28.00;;;;;;5079014;28;19923;-60
2022/04/01 11:12:33;;;;;;;;;;;25.30;28.10;;;;;;5055609;28;20012;-60
2022/04/01 11:15:19;;;;;;;;;;;25.30;28.10;;;;;;5053315;28;19986;-60
2022/04/01 11:17:44;;;;;;;;;;;25.30;28.10;;;;;;5047455;28;19913;-60
2022/04/01 11:20:10;;;;;;;;;;;25.20;28.10;;;;;;5071369;28;19955;-59
2022/04/01 11:22:45;;;;;;;;;;;25.20;28.20;;;;;;5035181;28;19916;-60
2022/04/01 11:25:35;;;;;;;;;;;25.20;28.10;;;;;;5049478;28;19920;-60
2022/04/01 11:28:01;;;;;;;;;;;25.20;28.20;;;;;;5049879;28;19917;-59
2022/04/01 11:30:28;;;;;;;;;;;25.20;28.10;;;;;;5028122;28;19913;-60
2022/04/01 11:32:54;;;;;;;;;;;25.10;28.20;;;;;;5027714;28;19913;-60
2022/04/01 11:35:23;;;;;;;;;;;25.20;28.20;;;;;;5033277;28;19913;-60
2022/04/01 11:37:49;;;;;;;;;;;25.10;28.20;;;;;;5045721;28;19913;-61
2022/04/01 11:40:18;;;;;;;;;;;25.10;28.20;;;;;;5036255;28;19913;-60
2022/04/01 11:42:51;;;;;;;;;;;25.10;28.20;;;;;;5013960;28;20000;-60
2022/04/01 11:45:16;;;;;;;;;;;25.10;28.30;;;;;;5052277;28;19917;-60
2022/04/01 11:47:41;;;;;;;;;;;25.00;28.30;;;;;;5041274;28;19917;-60
2022/04/01 11:50:07;;;;;;;;;;;25.10;28.30;;;;;;5031816;28;19969;-59
2022/04/01 11:52:42;;;;;;;;;;;25.00;28.30;;;;;;5046815;28;20020;-59
2022/04/01 11:55:18;;;;;;;;;;;25.10;28.30;;;;;;5035664;28;20266;-60
2022/04/01 11:57:43;;;;;;;;;;;25.20;28.80;;;;;;5014005;28;20007;-59
2022/04/01 12:00:13;;;;;;;;;;;25.10;28.20;;;;;;5052540;28;20402;-60
2022/04/01 12:02:39;;;;;;;;;;;25.20;28.30;;;;;;5053861;28;19916;-60
2022/04/01 12:05:04;;;;;;;;;;;25.20;28.20;;;;;;5037209;28;20257;-59
2022/04/01 12:10:24;;;;;;;;;;;25.20;28.10;;;;;;5025163;28;19970;-60
2022/04/01 12:12:54;;;;;;;;;;;25.20;28.10;;;;;;5000450;28;19921;-60
2022/04/01 12:15:38;;;;;;;;;;;25.20;28.20;;;;;;5034353;28;19931;-61
2022/04/01 12:18:11;;;;;;;;;;;25.10;28.10;;;;;;5025017;28;19913;-60
2022/04/01 12:20:40;;;;;;;;;;;25.10;28.20;;;;;;5052891;28;19921;-60
2022/04/01 12:23:05;;;;;;;;;;;25.10;28.20;;;;;;5050678;28;19920;-61
2022/04/01 12:25:31;;;;;;;;;;;25.10;28.20;;;;;;5037766;28;20276;-60
2022/04/01 12:27:58;;;;;;;;;;;25.10;28.20;;;;;;5049555;28;19916;-60
2022/04/01 12:30:43;;;;;;;;;;;25.10;28.20;;;;;;5043480;28;19913;-60
2022/04/01 12:33:09;;;;;;;;;;;25.10;28.20;;;;;;5051004;28;19917;-62
2022/04/01 12:35:34;;;;;;;;;;;25.10;28.20;;;;;;5059724;28;20364;-60
2022/04/01 12:38:03;;;;;;;;;;;25.10;28.20;;;;;;5056799;28;19916;-60
2022/04/01 12:40:33;;;;;;;;;;;25.10;28.10;;;;;;5043993;28;19936;-62
2022/04/01 12:42:58;;;;;;;;;;;25.10;28.20;;;;;;5035326;28;19916;-61
2022/04/01 12:45:24;;;;;;;;;;;25.10;28.10;;;;;;5035535;28;20339;-60
2022/04/01 12:47:50;;;;;;;;;;;25.20;28.10;;;;;;5037709;28;19913;-60
2022/04/01 12:50:31;;;;;;;;;;;25.20;27.90;;;;;;5037040;28;19916;-60
2022/04/01 12:53:10;;;;;;;;;;;25.20;28.00;;;;;;5020484;28;19923;-60
2022/04/01 12:55:35;;;;;;;;;;;25.20;27.80;;;;;;5017262;28;19928;-60
2022/04/01 12:58:01;;;;;;;;;;;25.20;27.80;;;;;;5059402;28;19912;-61
2022/04/01 13:00:26;;;;;;;;;;;25.20;27.80;;;;;;5031724;28;20355;-61
2022/04/01 13:02:52;;;;;;;;;;;25.20;27.70;;;;;;5040341;28;20257;-61
2022/04/01 13:05:18;;;;;;;;;;;25.20;27.80;;;;;;5041870;28;19967;-61
2022/04/01 13:07:43;;;;;;;;;;;25.20;27.70;;;;;;5066563;28;19912;-60
2022/04/01 13:10:16;;;;;;;;;;;25.10;28.10;;;;;;5031653;28;19966;-60
2022/04/01 13:12:46;;;;;;;;;;;25.10;27.70;;;;;;5040429;28;20031;-60
2022/04/01 13:15:12;;;;;;;;;;;25.00;27.60;;;;;;5023874;28;19924;-60
2022/04/01 13:17:43;;;;;;;;;;;24.90;27.60;;;;;;5057177;28;19934;-60
2022/04/01 13:20:10;;;;;;;;;;;24.90;27.40;;;;;;5043974;28;22024;-61
2022/04/01 13:22:36;;;;;;;;;;;24.90;27.50;;;;;;5060418;28;20280;-61
2022/04/01 13:25:01;;;;;;;;;;;24.90;27.50;;;;;;5042729;28;19935;-60
2022/04/01 13:27:27;;;;;;;;;;;24.90;27.50;;;;;;5034580;28;20391;-61
2022/04/01 13:29:54;;;;;;;;;;;24.90;27.50;;;;;;5031402;28;19994;-61
2022/04/01 13:32:20;;;;;;;;;;;24.80;27.50;;;;;;5032585;28;20384;-60
2022/04/01 13:34:45;;;;;;;;;;;24.80;27.60;;;;;;5065327;28;19970;-60
2022/04/01 13:37:11;;;;;;;;;;;24.70;27.60;;;;;;5053208;28;20360;-62
2022/04/01 13:39:36;;;;;;;;;;;24.70;27.60;;;;;;5037016;28;19920;-60
2022/04/01 13:42:02;;;;;;;;;;;24.70;27.70;;;;;;5035410;28;19969;-61
2022/04/01 13:44:28;;;;;;;;;;;24.70;27.70;;;;;;5059303;28;19958;-60
2022/04/01 13:46:54;;;;;;;;;;;24.70;27.80;;;;;;5040083;28;19920;-61
2022/04/01 13:49:19;;;;;;;;;;;24.70;27.90;;;;;;5039622;28;19927;-61
2022/04/01 13:51:45;;;;;;;;;;;24.70;27.90;;;;;;5048259;28;19913;-61
2022/04/01 13:54:10;;;;;;;;;;;24.70;27.90;;;;;;5045015;28;19995;-61
2022/04/01 13:56:36;;;;;;;;;;;24.70;27.90;;;;;;5060678;28;19923;-61
2022/04/01 13:59:02;;;;;;;;;;;24.70;27.80;;;;;;5029601;28;19920;-61
2022/04/01 14:01:28;;;;;;;;;;;24.80;27.80;;;;;;5045118;28;19917;-60
2022/04/01 14:03:53;;;;;;;;;;;24.80;27.80;;;;;;5064395;28;19916;-61
2022/04/01 14:06:21;;;;;;;;;;;24.80;27.80;;;;;;5050377;28;20773;-60
2022/04/01 14:08:46;;;;;;;;;;;24.80;27.70;;;;;;5045102;28;19932;-60
2022/04/01 14:11:12;;;;;;;;;;;24.80;27.70;;;;;;5064632;28;19916;-61
2022/04/01 14:13:37;;;;;;;;;;;24.90;27.90;;;;;;5076320;28;20065;-60
2022/04/01 14:16:03;;;;;;;;;;;24.80;28.20;;;;;;5054996;28;20833;-61
2022/04/01 14:18:28;;;;;;;;;;;24.80;28.60;;;;;;5050283;28;19913;-61
2022/04/01 14:20:57;;;;;;;;;;;24.90;28.90;;;;;;5051047;28;19924;-61
2022/04/01 14:23:31;;;;;;;;;;;25.00;28.90;;;;;;5055584;28;20038;-61
2022/04/01 14:25:58;;;;;;;;;;;25.10;28.80;;;;;;5069372;28;20376;-62
2022/04/01 14:28:24;;;;;;;;;;;25.20;28.70;;;;;;5051571;28;20670;-61